Time;durP1;ratioP1;P1;durP2;ratioP2;P2;SDS_P1;SDS_P2;PMS_P1;PMS_P2;Temp;Humidity;BMP_temperature;BMP_pressure;BME280_temperature;BME280_humidity;BME280_pressure;Samples;Min_cycle;Max_cycle;Signal;HPM_P1;HPM_P2
2021/08/21 00:01:47;;;;;;;3.00;2.20;;;21.70;99.90;;;;;;2619235;54;20391;-71
2021/08/21 00:04:15;;;;;;;3.42;2.10;;;21.70;99.90;;;;;;2618766;46;20375;-73
2021/08/21 00:06:41;;;;;;;3.10;2.10;;;21.60;99.90;;;;;;2619369;54;20424;-73
2021/08/21 00:09:07;;;;;;;3.33;2.13;;;21.60;99.90;;;;;;2620034;39;20767;-74
2021/08/21 00:11:33;;;;;;;4.68;2.40;;;21.50;99.90;;;;;;2619618;54;20414;-76
2021/08/21 00:13:59;;;;;;;4.03;2.60;;;21.50;99.90;;;;;;2619005;47;20371;-75
2021/08/21 00:16:28;;;;;;;4.50;2.53;;;21.50;99.90;;;;;;2619671;39;20806;-75
2021/08/21 00:18:54;;;;;;;2.28;2.08;;;21.50;99.90;;;;;;2619280;54;20362;-73
2021/08/21 00:21:20;;;;;;;3.65;2.33;;;21.50;99.90;;;;;;2619004;54;20367;-72
2021/08/21 00:23:47;;;;;;;3.72;2.40;;;21.50;99.90;;;;;;2619165;54;20379;-72
2021/08/21 00:26:13;;;;;;;3.20;2.30;;;21.60;99.90;;;;;;2618559;54;20359;-72
2021/08/21 00:28:39;;;;;;;3.43;2.37;;;21.60;99.90;;;;;;2619441;39;20704;-72
2021/08/21 00:31:05;;;;;;;2.65;2.20;;;21.60;99.90;;;;;;2619152;54;20402;-71
2021/08/21 00:33:34;;;;;;;4.13;2.47;;;21.60;99.90;;;;;;2618953;54;20401;-72
2021/08/21 00:36:00;;;;;;;3.55;2.40;;;21.50;99.90;;;;;;2619211;54;20458;-72
2021/08/21 00:38:26;;;;;;;2.90;2.28;;;21.40;99.80;;;;;;2618949;54;20371;-72
2021/08/21 00:40:52;;;;;;;4.00;2.53;;;21.40;99.90;;;;;;2619241;54;20374;-74
2021/08/21 00:43:19;;;;;;;3.72;2.40;;;21.40;99.90;;;;;;2619736;54;20375;-74
2021/08/21 00:45:45;;;;;;;2.60;2.35;;;21.40;99.90;;;;;;2619447;54;21670;-75
2021/08/21 00:48:11;;;;;;;3.42;2.38;;;21.40;99.90;;;;;;2619324;54;20450;-74
2021/08/21 00:50:42;;;;;;;4.25;2.30;;;21.30;99.90;;;;;;2620114;39;20716;-74
2021/08/21 00:53:08;;;;;;;3.83;2.35;;;21.40;99.90;;;;;;2618622;54;20362;-74
2021/08/21 00:55:34;;;;;;;4.18;2.38;;;21.40;99.90;;;;;;2619677;54;20374;-75
2021/08/21 00:58:00;;;;;;;4.35;2.40;;;21.40;99.90;;;;;;2619293;54;20391;-74
2021/08/21 01:00:26;;;;;;;2.53;2.25;;;21.40;99.90;;;;;;2619961;39;20771;-72
2021/08/21 01:05:20;;;;;;;6.38;2.70;;;21.50;99.80;;;;;;2619850;54;20414;-73
2021/08/21 01:07:49;;;;;;;2.38;2.17;;;21.40;99.70;;;;;;2619844;54;20347;-73
2021/08/21 01:10:17;;;;;;;3.45;2.33;;;21.50;99.60;;;;;;2619839;54;20428;-73
2021/08/21 01:12:48;;;;;;;4.88;2.83;;;21.40;99.60;;;;;;2619688;54;20363;-74
2021/08/21 01:15:15;;;;;;;2.83;2.27;;;21.40;99.50;;;;;;2619533;54;20351;-73
2021/08/21 01:17:41;;;;;;;4.10;2.35;;;21.50;99.50;;;;;;2618747;46;20355;-74
2021/08/21 01:20:08;;;;;;;3.08;2.33;;;21.50;99.40;;;;;;2619299;54;20360;-72
2021/08/21 01:22:35;;;;;;;2.80;1.98;;;21.50;99.30;;;;;;2619407;54;20362;-73
2021/08/21 01:25:08;;;;;;;4.10;2.03;;;21.40;99.50;;;;;;2619352;54;20451;-72
2021/08/21 01:27:36;;;;;;;3.33;2.10;;;21.40;99.40;;;;;;2618120;54;20381;-73
2021/08/21 01:30:04;;;;;;;3.80;2.50;;;21.40;99.50;;;;;;2619958;54;20354;-74
2021/08/21 01:32:30;;;;;;;3.53;2.42;;;21.40;99.50;;;;;;2620660;47;20378;-75
2021/08/21 01:34:58;;;;;;;3.55;2.55;;;21.40;99.50;;;;;;2623065;47;20342;-74
2021/08/21 01:37:28;;;;;;;4.63;2.25;;;21.50;99.00;;;;;;2622406;54;20375;-73
2021/08/21 01:39:56;;;;;;;4.00;2.35;;;21.50;99.00;;;;;;2622754;54;20355;-75
2021/08/21 01:42:23;;;;;;;3.78;2.40;;;21.60;98.70;;;;;;2622901;46;20877;-72
2021/08/21 01:44:52;;;;;;;3.60;2.55;;;21.60;98.70;;;;;;2620274;54;20354;-73
2021/08/21 01:47:19;;;;;;;4.90;2.78;;;21.60;98.80;;;;;;2620358;54;20366;-74
2021/08/21 01:49:52;;;;;;;2.60;2.00;;;21.60;98.60;;;;;;2620956;54;20412;-72
2021/08/21 01:52:18;;;;;;;4.10;2.70;;;21.50;98.90;;;;;;2620790;47;20351;-75
2021/08/21 01:54:44;;;;;;;4.63;2.40;;;21.60;98.90;;;;;;2622259;54;20354;-74
2021/08/21 01:57:10;;;;;;;5.10;2.38;;;21.40;98.90;;;;;;2620300;46;20374;-73
2021/08/21 01:59:37;;;;;;;3.58;2.15;;;21.50;98.60;;;;;;2621158;54;20872;-73
2021/08/21 02:02:08;;;;;;;3.78;2.72;;;21.50;98.70;;;;;;2621166;39;20794;-74
2021/08/21 02:04:34;;;;;;;4.40;2.70;;;21.50;98.70;;;;;;2621638;54;20371;-73
2021/08/21 02:07:00;;;;;;;3.80;2.67;;;21.60;98.30;;;;;;2621960;54;20434;-74
2021/08/21 02:09:27;;;;;;;3.17;2.33;;;21.60;98.30;;;;;;2621409;54;20351;-75
2021/08/21 02:11:55;;;;;;;3.88;2.33;;;21.70;98.00;;;;;;2621964;47;20450;-74
2021/08/21 02:14:23;;;;;;;3.15;2.15;;;21.60;98.30;;;;;;2621587;54;20350;-75
2021/08/21 02:16:51;;;;;;;2.35;2.10;;;21.60;98.30;;;;;;2621775;54;20355;-73
2021/08/21 02:19:20;;;;;;;3.30;2.15;;;21.60;98.10;;;;;;2621072;47;20399;-73
2021/08/21 02:21:47;;;;;;;2.75;2.28;;;21.60;98.10;;;;;;2621239;54;20362;-74
2021/08/21 02:24:15;;;;;;;3.58;2.70;;;21.60;98.30;;;;;;2621317;54;20335;-72
2021/08/21 02:26:43;;;;;;;2.80;2.30;;;21.60;98.40;;;;;;2621426;54;20382;-73
2021/08/21 02:29:09;;;;;;;2.30;1.93;;;21.50;98.70;;;;;;2622177;54;20871;-75
2021/08/21 02:31:36;;;;;;;4.15;2.20;;;21.50;98.40;;;;;;2622101;47;20465;-73
2021/08/21 02:34:02;;;;;;;2.80;2.22;;;21.50;98.40;;;;;;2621553;54;20403;-74
2021/08/21 02:36:33;;;;;;;3.45;2.50;;;21.50;98.40;;;;;;2622261;54;20367;-76
2021/08/21 02:38:59;;;;;;;2.83;2.10;;;21.60;98.20;;;;;;2623560;39;20767;-73
2021/08/21 02:41:26;;;;;;;3.05;2.20;;;21.60;98.00;;;;;;2623268;54;20365;-75
2021/08/21 02:43:52;;;;;;;4.63;2.63;;;21.60;98.00;;;;;;2621005;54;20347;-74
2021/08/21 02:46:18;;;;;;;3.05;2.38;;;21.60;98.10;;;;;;2621277;54;20450;-73
2021/08/21 02:48:44;;;;;;;2.70;2.40;;;21.60;98.00;;;;;;2621747;54;20363;-74
2021/08/21 02:51:11;;;;;;;2.95;2.38;;;21.60;98.00;;;;;;2621443;54;20476;-74
2021/08/21 02:53:40;;;;;;;3.33;2.40;;;21.60;97.90;;;;;;2620255;54;20350;-72
2021/08/21 02:56:06;;;;;;;3.30;2.63;;;21.60;97.80;;;;;;2619315;54;20355;-72
2021/08/21 02:58:32;;;;;;;3.58;2.65;;;21.60;97.80;;;;;;2619483;54;20374;-72
2021/08/21 03:00:58;;;;;;;3.20;2.35;;;21.60;98.30;;;;;;2619228;46;20334;-75
2021/08/21 03:03:24;;;;;;;3.05;2.75;;;21.50;98.00;;;;;;2618894;46;20350;-72
2021/08/21 03:05:50;;;;;;;3.67;2.40;;;21.50;97.90;;;;;;2619369;39;20730;-72
2021/08/21 03:08:16;;;;;;;4.30;2.70;;;21.50;97.80;;;;;;2620116;39;20739;-72
2021/08/21 03:10:45;;;;;;;5.50;2.90;;;21.50;97.60;;;;;;2619621;54;20862;-72
2021/08/21 03:13:11;;;;;;;3.45;2.28;;;21.50;97.80;;;;;;2619017;46;20347;-72
2021/08/21 03:15:37;;;;;;;3.80;2.42;;;21.50;97.90;;;;;;2619313;54;20363;-74
2021/08/21 03:18:03;;;;;;;4.07;2.40;;;21.40;98.10;;;;;;2618499;47;20362;-73
2021/08/21 03:20:29;;;;;;;3.83;2.50;;;21.40;97.90;;;;;;2619804;54;20395;-72
2021/08/21 03:22:55;;;;;;;5.28;2.45;;;21.40;98.00;;;;;;2619537;54;20454;-72
2021/08/21 03:25:21;;;;;;;3.35;2.67;;;;;;;;;;2619294;46;20858;-73
2021/08/21 03:27:50;;;;;;;4.00;2.60;;;;;;;;;;2619354;54;20351;-72
2021/08/21 03:30:17;;;;;;;4.05;2.85;;;;;;;;;;2619467;54;20373;-73
2021/08/21 03:32:43;;;;;;;3.22;2.58;;;;;;;;;;2618809;46;20387;-73
2021/08/21 03:35:10;;;;;;;3.40;2.45;;;;;;;;;;2619520;54;20443;-75
2021/08/21 03:37:36;;;;;;;4.75;2.90;;;;;;;;;;2619899;39;20853;-72
2021/08/21 03:40:02;;;;;;;3.10;2.70;;;;;;;;;;2619367;54;20431;-71
2021/08/21 03:42:29;;;;;;;3.00;2.17;;;;;;;;;;2619196;39;20715;-73
2021/08/21 03:44:57;;;;;;;3.90;2.85;;;21.30;98.10;;;;;;2619224;54;20438;-71
2021/08/21 03:47:23;;;;;;;3.87;2.70;;;21.10;98.30;;;;;;2619090;54;20441;-71
2021/08/21 03:49:49;;;;;;;3.40;2.60;;;21.10;98.50;;;;;;2619547;54;20370;-75
2021/08/21 03:52:16;;;;;;;3.90;2.80;;;21.10;98.30;;;;;;2618867;47;20340;-71
2021/08/21 03:54:42;;;;;;;3.17;2.60;;;21.00;98.50;;;;;;2619522;54;20395;-73
2021/08/21 03:57:08;;;;;;;3.80;2.83;;;21.00;98.30;;;;;;2618894;46;20354;-72
2021/08/21 03:59:34;;;;;;;3.58;2.60;;;21.00;98.30;;;;;;2619306;54;20954;-73
2021/08/21 04:02:02;;;;;;;5.95;2.55;;;21.00;98.40;;;;;;2619336;54;20366;-72
2021/08/21 04:04:28;;;;;;;3.92;2.63;;;21.00;98.10;;;;;;2619255;54;21045;-72
2021/08/21 04:06:54;;;;;;;3.63;2.42;;;21.00;98.30;;;;;;2619098;54;20351;-72
2021/08/21 04:09:21;;;;;;;4.55;2.72;;;21.00;98.10;;;;;;2619701;54;20359;-72
2021/08/21 04:11:47;;;;;;;3.28;2.55;;;21.00;98.00;;;;;;2620087;54;20351;-73
2021/08/21 04:14:13;;;;;;;6.07;3.00;;;21.00;98.00;;;;;;2619992;54;20332;-72
2021/08/21 04:16:39;;;;;;;4.18;2.78;;;21.10;97.90;;;;;;2620024;54;20347;-71
2021/08/21 04:19:08;;;;;;;3.67;2.80;;;21.00;97.80;;;;;;2620383;54;20855;-73
2021/08/21 04:21:35;;;;;;;4.20;2.53;;;21.00;97.80;;;;;;2620262;54;20359;-74
2021/08/21 04:24:01;;;;;;;4.38;2.78;;;21.10;97.60;;;;;;2619576;47;20346;-73
2021/08/21 04:26:27;;;;;;;3.13;2.47;;;21.00;97.90;;;;;;2619314;46;20354;-72
2021/08/21 04:28:54;;;;;;;3.17;2.20;;;21.00;98.10;;;;;;2619751;54;20438;-74
2021/08/21 04:31:20;;;;;;;7.00;2.90;;;20.90;97.80;;;;;;2619918;39;20704;-73
2021/08/21 04:33:46;;;;;;;4.07;2.60;;;21.00;97.50;;;;;;2619895;54;20398;-73
2021/08/21 04:36:14;;;;;;;5.07;2.83;;;21.10;97.60;;;;;;2619738;54;20356;-73
2021/08/21 04:38:40;;;;;;;3.13;1.95;;;21.00;97.80;;;;;;2619663;54;20435;-72
2021/08/21 04:41:06;;;;;;;3.15;2.40;;;21.00;97.60;;;;;;2619558;54;20452;-74
2021/08/21 04:43:32;;;;;;;3.25;2.90;;;21.00;97.90;;;;;;2619710;54;20343;-75
2021/08/21 04:45:58;;;;;;;2.95;2.53;;;20.90;97.90;;;;;;2619564;54;20341;-73
2021/08/21 04:48:24;;;;;;;3.20;2.63;;;20.90;98.00;;;;;;2619490;54;20402;-73
2021/08/21 04:50:50;;;;;;;3.72;2.65;;;20.90;98.10;;;;;;2620116;39;20692;-73
2021/08/21 04:53:19;;;;;;;3.15;2.35;;;20.90;98.10;;;;;;2619504;39;20749;-73
2021/08/21 04:55:45;;;;;;;4.85;2.38;;;20.90;98.20;;;;;;2619360;54;20424;-72
2021/08/21 04:58:11;;;;;;;4.00;2.50;;;20.80;98.40;;;;;;2619404;54;20385;-71
2021/08/21 05:00:37;;;;;;;3.55;2.63;;;20.80;98.10;;;;;;2619036;46;20349;-73
2021/08/21 05:03:03;;;;;;;3.80;2.55;;;20.80;98.50;;;;;;2619684;54;20392;-73
2021/08/21 05:05:30;;;;;;;3.75;2.83;;;20.80;98.40;;;;;;2618156;54;21340;-71
2021/08/21 05:07:56;;;;;;;4.45;2.58;;;20.90;98.30;;;;;;2619020;54;20509;-72
2021/08/21 05:10:25;;;;;;;3.65;2.83;;;20.90;98.30;;;;;;2619006;47;20355;-74
2021/08/21 05:12:51;;;;;;;3.83;2.70;;;20.90;98.30;;;;;;2619192;47;20407;-72
2021/08/21 05:15:17;;;;;;;2.63;2.10;;;20.90;97.80;;;;;;2618514;47;20450;-72
2021/08/21 05:17:43;;;;;;;3.33;2.93;;;20.90;97.90;;;;;;2619087;39;20749;-72
2021/08/21 05:20:16;;;;;;;4.47;2.70;;;20.90;97.80;;;;;;2618587;46;20350;-71
2021/08/21 05:25:09;;;;;;;3.65;2.58;;;20.90;97.50;;;;;;2619132;54;20902;-72
2021/08/21 05:27:38;;;;;;;4.43;2.50;;;21.00;97.50;;;;;;2619066;54;20355;-72
2021/08/21 05:30:07;;;;;;;4.07;2.50;;;21.10;97.40;;;;;;2617574;54;20342;-71
2021/08/21 05:32:35;;;;;;;2.92;2.63;;;21.10;97.40;;;;;;2617722;54;20454;-72
2021/08/21 05:35:01;;;;;;;4.82;2.50;;;21.20;97.50;;;;;;2617557;54;20388;-72
2021/08/21 05:37:27;;;;;;;3.75;2.58;;;21.20;97.60;;;;;;2617511;54;20355;-72
2021/08/21 05:39:53;;;;;;;5.00;2.78;;;21.20;97.50;;;;;;2618061;39;20747;-71
2021/08/21 05:42:19;;;;;;;3.53;2.83;;;21.20;97.40;;;;;;2617366;46;20349;-72
2021/08/21 05:44:48;;;;;;;4.35;2.80;;;21.20;97.90;;;;;;2617566;54;20873;-72
2021/08/21 05:47:14;;;;;;;4.85;2.50;;;21.20;97.50;;;;;;2617946;39;20723;-72
2021/08/21 05:49:40;;;;;;;4.20;2.97;;;21.30;97.50;;;;;;2617342;47;20422;-71
2021/08/21 05:52:06;;;;;;;4.53;2.92;;;21.30;97.30;;;;;;2617632;54;20367;-73
2021/08/21 05:54:32;;;;;;;3.92;2.70;;;21.30;97.40;;;;;;2617465;47;20358;-73
2021/08/21 05:56:58;;;;;;;4.13;2.80;;;21.40;97.20;;;;;;2617358;47;20388;-73
2021/08/21 05:59:30;;;;;;;4.78;2.80;;;21.40;97.40;;;;;;2618066;54;20406;-72
2021/08/21 06:01:59;;;;;;;4.05;2.70;;;21.40;97.50;;;;;;2619050;46;20371;-73
2021/08/21 06:04:25;;;;;;;2.90;2.40;;;21.40;97.50;;;;;;2619575;47;20377;-74
2021/08/21 06:06:51;;;;;;;3.13;2.70;;;21.40;97.40;;;;;;2619322;47;20351;-73
2021/08/21 06:09:20;;;;;;;3.42;2.53;;;21.40;97.50;;;;;;2619322;54;20384;-73
2021/08/21 06:11:46;;;;;;;4.17;2.70;;;21.40;97.00;;;;;;2619710;54;20376;-74
2021/08/21 06:14:16;;;;;;;3.45;2.47;;;21.50;97.20;;;;;;2618030;54;21604;-72
2021/08/21 06:16:42;;;;;;;3.60;2.70;;;21.50;97.30;;;;;;2619427;46;20392;-71
2021/08/21 06:19:11;;;;;;;3.25;2.75;;;21.50;97.20;;;;;;2619585;54;20360;-74
2021/08/21 06:21:37;;;;;;;3.50;2.70;;;21.40;97.20;;;;;;2619832;39;20747;-73
2021/08/21 06:24:03;;;;;;;3.08;2.33;;;21.40;96.90;;;;;;2619170;47;20351;-73
2021/08/21 06:26:30;;;;;;;3.30;2.30;;;21.50;97.10;;;;;;2619278;46;20375;-72
2021/08/21 06:28:56;;;;;;;5.38;2.85;;;21.50;97.00;;;;;;2619864;54;20347;-74
2021/08/21 06:31:22;;;;;;;3.28;2.75;;;21.50;97.00;;;;;;2619997;54;20376;-73
2021/08/21 06:33:48;;;;;;;4.72;3.10;;;21.50;96.90;;;;;;2619659;54;20363;-73
2021/08/21 06:36:16;;;;;;;3.37;2.50;;;21.60;96.80;;;;;;2618952;47;20375;-72
2021/08/21 06:38:42;;;;;;;4.55;2.80;;;21.60;97.10;;;;;;2618872;54;20883;-71
2021/08/21 06:41:08;;;;;;;6.20;2.53;;;21.60;96.60;;;;;;2618491;54;20365;-72
2021/08/21 06:43:34;;;;;;;3.83;2.85;;;21.60;96.80;;;;;;2618563;54;20351;-72
2021/08/21 06:46:00;;;;;;;3.63;2.72;;;21.60;96.80;;;;;;2618611;54;20363;-71
2021/08/21 06:48:29;;;;;;;3.90;2.55;;;21.70;96.70;;;;;;2618899;39;20730;-75
2021/08/21 06:50:55;;;;;;;6.65;3.08;;;21.80;96.20;;;;;;2619109;39;20726;-72
2021/08/21 06:53:25;;;;;;;3.65;2.58;;;21.90;96.60;;;;;;2618771;39;20722;-74
2021/08/21 06:55:51;;;;;;;3.47;2.83;;;21.90;96.10;;;;;;2618546;54;20347;-72
2021/08/21 06:58:18;;;;;;;3.92;2.90;;;21.90;96.20;;;;;;2618440;54;20367;-72
2021/08/21 07:00:45;;;;;;;4.40;2.80;;;22.00;96.50;;;;;;2618560;54;20335;-71
2021/08/21 07:03:11;;;;;;;5.00;2.83;;;22.00;96.10;;;;;;2617986;47;20351;-72
2021/08/21 07:05:37;;;;;;;4.15;2.55;;;22.00;96.40;;;;;;2617839;47;20424;-72
2021/08/21 07:08:03;;;;;;;3.63;2.58;;;22.00;96.50;;;;;;2617857;47;20335;-72
2021/08/21 07:10:32;;;;;;;4.50;2.75;;;22.10;96.40;;;;;;2617876;47;20359;-72
2021/08/21 07:12:58;;;;;;;4.25;3.10;;;22.10;96.20;;;;;;2617088;54;20351;-71
2021/08/21 07:15:24;;;;;;;4.50;3.00;;;22.10;95.80;;;;;;2617330;54;20383;-70
2021/08/21 07:17:50;;;;;;;3.78;2.78;;;22.20;96.00;;;;;;2616999;54;20931;-71
2021/08/21 07:20:16;;;;;;;4.47;2.97;;;22.20;96.00;;;;;;2617287;54;20355;-71
2021/08/21 07:22:42;;;;;;;3.53;2.97;;;22.20;96.10;;;;;;2617154;54;20390;-72
2021/08/21 07:25:09;;;;;;;5.13;2.87;;;22.30;96.10;;;;;;2617268;54;20351;-70
2021/08/21 07:27:38;;;;;;;3.63;2.55;;;22.40;96.60;;;;;;2617057;54;20355;-72
2021/08/21 07:30:05;;;;;;;3.70;2.90;;;22.40;95.90;;;;;;2616944;54;20371;-71
2021/08/21 07:32:31;;;;;;;4.28;2.92;;;22.50;95.80;;;;;;2618032;39;20757;-71
2021/08/21 07:34:57;;;;;;;4.07;2.97;;;22.60;95.90;;;;;;2617557;46;20343;-72
2021/08/21 07:37:24;;;;;;;4.63;2.72;;;22.70;95.50;;;;;;2617757;54;20879;-72
2021/08/21 07:39:50;;;;;;;5.57;3.00;;;22.90;95.40;;;;;;2617853;54;20370;-72
2021/08/21 07:42:16;;;;;;;3.60;2.70;;;23.10;96.10;;;;;;2617995;54;20450;-72
2021/08/21 07:44:44;;;;;;;5.35;2.67;;;23.30;94.50;;;;;;2618927;54;20348;-72
2021/08/21 07:47:11;;;;;;;4.33;3.07;;;23.50;94.90;;;;;;2618556;46;20378;-71
2021/08/21 07:49:37;;;;;;;3.95;2.60;;;23.70;94.70;;;;;;2618337;46;20354;-71
2021/08/21 07:52:04;;;;;;;3.65;2.97;;;24.00;94.60;;;;;;2618969;54;20351;-72
2021/08/21 07:54:30;;;;;;;5.15;3.47;;;24.20;93.60;;;;;;2618595;46;20353;-71
2021/08/21 07:56:56;;;;;;;5.68;4.90;;;24.30;93.80;;;;;;2618431;47;21312;-71
2021/08/21 07:59:22;;;;;;;5.90;4.38;;;24.40;93.30;;;;;;2618415;46;20351;-75
2021/08/21 08:01:51;;;;;;;3.65;2.78;;;24.70;94.10;;;;;;2618974;54;20351;-73
2021/08/21 08:04:17;;;;;;;3.70;2.20;;;24.90;92.70;;;;;;2619092;54;20358;-72
2021/08/21 08:06:43;;;;;;;4.60;2.50;;;25.10;93.10;;;;;;2618512;47;20366;-73
2021/08/21 08:09:09;;;;;;;4.83;2.50;;;25.10;92.10;;;;;;2619050;54;20347;-70
2021/08/21 08:11:35;;;;;;;3.70;2.63;;;25.30;92.60;;;;;;2618822;54;20443;-72
2021/08/21 08:14:01;;;;;;;3.85;2.20;;;25.40;95.10;;;;;;2618589;54;20353;-71
2021/08/21 08:16:27;;;;;;;3.55;2.05;;;25.60;95.80;;;;;;2618855;54;20359;-71
2021/08/21 08:18:56;;;;;;;4.85;2.58;;;25.80;95.80;;;;;;2618804;54;20355;-72
2021/08/21 08:21:22;;;;;;;4.03;2.30;;;25.90;95.90;;;;;;2618790;54;20367;-71
2021/08/21 08:23:48;;;;;;;4.80;2.17;;;25.80;94.70;;;;;;2619223;39;20719;-71
2021/08/21 08:26:15;;;;;;;4.85;2.25;;;25.80;95.40;;;;;;2618567;39;20741;-71
2021/08/21 08:28:41;;;;;;;3.87;2.20;;;26.10;95.60;;;;;;2618725;54;20353;-71
2021/08/21 08:31:07;;;;;;;4.78;2.20;;;26.10;95.20;;;;;;2618639;54;20456;-71
2021/08/21 08:33:34;;;;;;;3.30;2.00;;;26.40;94.80;;;;;;2618714;54;20378;-71
2021/08/21 08:36:04;;;;;;;4.60;2.15;;;26.50;94.20;;;;;;2618760;54;20870;-71
2021/08/21 08:38:30;;;;;;;4.30;1.80;;;26.50;93.00;;;;;;2618354;46;20491;-72
2021/08/21 08:40:56;;;;;;;3.00;1.83;;;26.00;94.00;;;;;;2619208;54;20365;-72
2021/08/21 08:43:22;;;;;;;9.43;2.40;;;26.10;94.60;;;;;;2618480;54;20339;-73
2021/08/21 08:45:49;;;;;;;3.80;2.15;;;26.00;94.30;;;;;;2618839;54;20351;-71
2021/08/21 08:48:16;;;;;;;2.47;1.80;;;26.10;94.90;;;;;;2618353;46;20364;-71
2021/08/21 08:50:43;;;;;;;4.65;2.00;;;26.10;94.70;;;;;;2618750;54;20863;-72
2021/08/21 08:53:12;;;;;;;3.08;2.05;;;26.00;94.00;;;;;;2618067;47;20392;-72
2021/08/21 08:55:39;;;;;;;3.58;1.80;;;26.00;93.90;;;;;;2618637;54;20343;-74
2021/08/21 08:58:06;;;;;;;2.95;2.03;;;26.20;93.80;;;;;;2618008;54;20378;-72
2021/08/21 09:00:32;;;;;;;3.83;1.90;;;26.30;93.50;;;;;;2618707;54;20874;-71
2021/08/21 09:03:02;;;;;;;3.95;1.95;;;26.40;93.50;;;;;;2618011;47;20462;-72
2021/08/21 09:05:36;;;;;;;3.70;1.95;;;26.80;93.60;;;;;;2618447;54;20419;-70
2021/08/21 09:08:02;;;;;;;3.70;1.85;;;26.80;93.00;;;;;;2618799;54;20343;-71
2021/08/21 09:10:33;;;;;;;3.95;2.00;;;26.80;92.20;;;;;;2618715;54;20438;-71
2021/08/21 09:13:07;;;;;;;3.45;1.90;;;26.80;91.60;;;;;;2618675;54;20462;-71
2021/08/21 09:15:35;;;;;;;3.17;1.75;;;27.00;92.00;;;;;;2618702;54;20346;-71
2021/08/21 09:18:07;;;;;;;2.90;1.60;;;27.20;91.50;;;;;;2618689;54;20347;-71
2021/08/21 09:20:35;;;;;;;3.30;1.83;;;26.90;91.30;;;;;;2618896;54;20335;-72
2021/08/21 09:23:17;;;;;;;2.78;1.80;;;26.90;91.20;;;;;;2618157;47;20351;-70
2021/08/21 09:25:47;;;;;;;3.40;1.75;;;27.00;91.80;;;;;;2617357;54;20902;-72
2021/08/21 09:28:18;;;;;;;3.78;2.05;;;27.20;91.00;;;;;;2617322;54;20359;-72
2021/08/21 09:30:45;;;;;;;3.83;2.10;;;27.60;92.70;;;;;;2617184;54;20362;-72
2021/08/21 09:33:15;;;;;;;3.77;1.90;;;27.70;90.70;;;;;;2617163;54;20355;-72
2021/08/21 09:35:41;;;;;;;4.35;1.98;;;27.80;90.50;;;;;;2617185;54;20346;-71
2021/08/21 09:38:08;;;;;;;3.77;2.20;;;27.50;90.60;;;;;;2617170;54;20359;-71
2021/08/21 09:40:36;;;;;;;4.27;1.97;;;27.70;91.50;;;;;;2617317;54;20355;-72
2021/08/21 09:43:06;;;;;;;3.40;2.20;;;27.50;91.30;;;;;;2617233;54;20377;-72
2021/08/21 09:45:38;;;;;;;5.38;2.40;;;27.40;92.20;;;;;;2617318;54;20378;-72
2021/08/21 09:48:07;;;;;;;2.47;1.60;;;27.20;91.40;;;;;;2617184;54;20410;-71
2021/08/21 09:50:34;;;;;;;4.45;2.53;;;27.60;91.60;;;;;;2617045;54;20431;-71
2021/08/21 09:53:02;;;;;;;3.40;1.92;;;27.90;91.60;;;;;;2617187;54;20462;-73
2021/08/21 09:55:29;;;;;;;3.20;1.77;;;28.00;91.40;;;;;;2617102;54;20359;-73
2021/08/21 09:58:00;;;;;;;3.47;2.00;;;28.00;90.20;;;;;;2617809;54;20342;-73
2021/08/21 10:00:30;;;;;;;2.33;1.60;;;28.00;91.40;;;;;;2618153;54;20366;-72
2021/08/21 10:02:56;;;;;;;3.40;2.53;;;28.30;91.70;;;;;;2617253;39;20852;-71
2021/08/21 10:05:24;;;;;;;6.93;2.40;;;28.00;90.90;;;;;;2616688;54;20374;-72
2021/08/21 10:07:58;;;;;;;3.90;2.05;;;27.80;91.60;;;;;;2616784;54;20463;-72
2021/08/21 10:10:28;;;;;;;2.90;2.08;;;28.10;91.30;;;;;;2617015;54;20358;-72
2021/08/21 10:12:58;;;;;;;3.40;1.90;;;28.30;91.20;;;;;;2617012;54;20350;-72
2021/08/21 10:15:25;;;;;;;3.33;2.22;;;28.50;90.70;;;;;;2617034;54;20335;-71
2021/08/21 10:17:55;;;;;;;3.65;2.15;;;28.60;90.60;;;;;;2616969;47;20414;-73
2021/08/21 10:20:22;;;;;;;1.95;1.67;;;28.70;91.30;;;;;;2617000;54;20343;-71
2021/08/21 10:22:48;;;;;;;5.22;2.28;;;28.80;91.20;;;;;;2616953;54;20355;-71
2021/08/21 10:25:16;;;;;;;3.72;1.80;;;29.00;90.90;;;;;;2617001;54;20439;-72
2021/08/21 10:27:50;;;;;;;3.40;2.22;;;29.10;91.30;;;;;;2616939;54;20355;-73
2021/08/21 10:30:20;;;;;;;3.73;1.93;;;29.10;91.10;;;;;;2616955;54;20343;-72
2021/08/21 10:33:01;;;;;;;3.20;2.03;;;28.90;90.10;;;;;;2616927;54;20359;-72
2021/08/21 10:35:43;;;;;;;2.23;1.93;;;29.00;90.10;;;;;;2616740;54;20351;-71
2021/08/21 10:38:35;;;;;;;4.15;2.03;;;29.00;90.00;;;;;;2616706;54;20385;-71
2021/08/21 10:41:21;;;;;;;2.17;1.80;;;29.00;90.00;;;;;;2617568;31;20775;-72
2021/08/21 10:43:50;;;;;;;4.72;2.22;;;29.20;90.00;;;;;;2616758;54;20351;-72
2021/08/21 10:46:50;;;;;;;3.97;1.95;;;29.20;88.30;;;;;;2616813;47;20359;-72
2021/08/21 10:49:39;;;;;;;2.13;1.67;;;29.30;86.20;;;;;;2616642;54;20492;-72
2021/08/21 10:52:08;;;;;;;3.97;1.80;;;29.40;87.00;;;;;;2616863;54;20443;-72
2021/08/21 10:54:46;;;;;;;3.80;2.10;;;29.70;88.30;;;;;;2616566;54;20351;-73
2021/08/21 10:57:27;;;;;;;3.10;2.15;;;29.60;84.80;;;;;;2616778;54;20357;-72
2021/08/21 10:59:54;;;;;;;4.10;1.63;;;29.60;86.20;;;;;;2617134;39;20740;-73
2021/08/21 11:02:38;;;;;;;3.58;2.10;;;29.60;83.40;;;;;;2616744;54;21002;-72
2021/08/21 11:05:27;;;;;;;3.10;1.75;;;29.20;84.80;;;;;;2616846;54;20383;-71
2021/08/21 11:08:02;;;;;;;2.10;1.90;;;29.30;84.70;;;;;;2617562;54;20933;-75
2021/08/21 11:10:30;;;;;;;3.67;2.17;;;29.60;84.00;;;;;;2617378;54;20355;-72
2021/08/21 11:12:56;;;;;;;2.38;1.80;;;29.60;84.10;;;;;;2617573;54;20503;-72
2021/08/21 11:15:24;;;;;;;3.20;1.60;;;29.80;85.80;;;;;;2617334;54;20878;-72
2021/08/21 11:17:51;;;;;;;4.22;1.90;;;29.80;82.60;;;;;;2617476;54;21044;-71
2021/08/21 11:20:27;;;;;;;3.90;1.77;;;29.60;84.80;;;;;;2617451;54;20376;-73
2021/08/21 11:23:18;;;;;;;3.40;1.98;;;29.60;87.20;;;;;;2617485;54;20359;-70
2021/08/21 11:25:45;;;;;;;2.55;1.70;;;29.90;87.70;;;;;;2617213;54;20391;-73
2021/08/21 11:28:15;;;;;;;3.20;2.10;;;30.40;84.90;;;;;;2617374;54;21420;-72
2021/08/21 11:30:41;;;;;;;4.22;1.90;;;30.70;84.00;;;;;;2617470;54;20351;-71
2021/08/21 11:33:14;;;;;;;3.30;2.10;;;30.30;83.00;;;;;;2617426;54;20355;-71
2021/08/21 11:35:53;;;;;;;3.70;1.87;;;30.20;82.90;;;;;;2617393;54;20446;-74
2021/08/21 11:38:29;;;;;;;3.75;1.83;;;30.50;83.20;;;;;;2617332;54;20478;-72
2021/08/21 11:40:56;;;;;;;4.07;1.83;;;30.30;83.40;;;;;;2617500;54;20345;-71
2021/08/21 11:43:25;;;;;;;4.15;2.05;;;30.20;82.20;;;;;;2618421;54;20363;-71
2021/08/21 11:45:51;;;;;;;2.47;1.80;;;30.30;84.60;;;;;;2618775;54;20398;-73
2021/08/21 11:48:17;;;;;;;3.90;2.20;;;30.60;82.90;;;;;;2618573;46;20343;-72
2021/08/21 11:50:48;;;;;;;5.75;2.47;;;29.90;81.90;;;;;;2618722;54;20351;-73
2021/08/21 11:53:18;;;;;;;3.28;1.80;;;30.10;84.40;;;;;;2618127;47;20347;-72
2021/08/21 11:55:45;;;;;;;5.40;1.92;;;30.40;84.50;;;;;;2618724;54;20355;-73
2021/08/21 11:58:12;;;;;;;3.93;2.07;;;30.50;82.50;;;;;;2618173;46;20347;-72
2021/08/21 12:00:40;;;;;;;5.78;2.30;;;30.70;82.70;;;;;;2618649;54;20495;-72
2021/08/21 12:03:09;;;;;;;4.45;1.77;;;30.90;80.60;;;;;;2618595;54;20365;-71
2021/08/21 12:05:37;;;;;;;3.55;2.08;;;31.00;82.60;;;;;;2618480;54;20347;-72
2021/08/21 12:08:21;;;;;;;4.03;1.70;;;30.70;81.80;;;;;;2618566;54;20340;-71
2021/08/21 12:10:52;;;;;;;3.20;1.77;;;31.00;80.80;;;;;;2618575;54;20359;-71
2021/08/21 12:13:23;;;;;;;2.90;1.80;;;31.20;80.60;;;;;;2618550;54;20863;-72
2021/08/21 12:15:49;;;;;;;2.97;1.90;;;31.30;80.50;;;;;;2618586;54;20432;-73
2021/08/21 12:18:17;;;;;;;3.63;1.97;;;31.20;81.80;;;;;;2618440;54;20435;-71
2021/08/21 12:20:43;;;;;;;4.20;1.80;;;31.20;79.70;;;;;;2618147;46;20893;-71
2021/08/21 12:23:14;;;;;;;2.87;1.60;;;31.00;79.20;;;;;;2618492;54;20871;-70
2021/08/21 12:25:47;;;;;;;3.15;1.65;;;30.90;79.20;;;;;;2618466;54;20378;-71
2021/08/21 12:28:14;;;;;;;3.70;1.70;;;;;;;;;;2618369;54;20405;-72
2021/08/21 12:30:40;;;;;;;3.47;1.77;;;31.20;82.20;;;;;;2618507;54;20363;-72
2021/08/21 12:33:10;;;;;;;1.83;1.65;;;31.80;80.90;;;;;;2618555;54;20361;-72
2021/08/21 12:35:36;;;;;;;3.13;1.80;;;31.90;79.70;;;;;;2617951;46;20351;-72
2021/08/21 12:38:03;;;;;;;4.75;1.88;;;31.10;77.50;;;;;;2618358;54;20343;-70
2021/08/21 12:40:30;;;;;;;3.83;1.90;;;30.80;80.20;;;;;;2617911;46;20379;-72
2021/08/21 12:43:05;;;;;;;3.05;1.50;;;31.20;78.50;;;;;;2618944;39;20718;-71
2021/08/21 12:45:31;;;;;;;2.97;1.95;;;31.40;81.60;;;;;;2618879;39;20704;-71
2021/08/21 12:48:07;;;;;;;3.95;2.08;;;30.90;79.30;;;;;;2618010;46;20411;-71
2021/08/21 12:50:39;;;;;;;4.75;1.90;;;30.70;78.40;;;;;;2618459;54;20357;-72
2021/08/21 12:53:06;;;;;;;4.18;2.03;;;30.70;83.20;;;;;;2618520;54;20335;-71
2021/08/21 12:55:33;;;;;;;4.85;2.05;;;31.10;80.30;;;;;;2618574;54;20443;-71
2021/08/21 12:58:09;;;;;;;3.25;2.15;;;31.00;78.50;;;;;;2618541;54;20359;-71
2021/08/21 13:00:37;;;;;;;3.10;2.00;;;30.60;79.80;;;;;;2617862;47;20359;-71